Flint, TX (75762)

9:19 PM CDT on April 30, 2017 (GMT -0500)
Keith Fonville Home | | Change Station
Active Advisory: Flood Warning

Elev 509 ft 32.16 °N, 95.36 °W | Updated 3 seconds ago

Clear
Clear
62.5 °F
Feels Like 62.5 °F
N
5.0
Wind Variable Wind from WSW

Today
High -- | Low -- °F
--% Chance of Precip.
Yesterday
High -- | Low -- °F
Precip. -- in
Pressure 29.87 in
Visibility 10.0 miles
Clouds Clear
Dew Point 42 °F
Humidity 48%
Rainfall 0.27 in
Snow Depth Not available.
6:35 AM 8:01 PM
Waxing Crescent, 28% visible
METAR KTYR 010153Z 26008KT 10SM CLR 17/02 A2987 RMK AO2 SLP113 T01670022
Pressure 29.87 in
Visibility 10.0 miles
Clouds Clear
Dew Point 42 °F
Humidity 48%
Rainfall 0.27 in
Snow Depth Not available.
6:35 AM 8:01 PM
Waxing Crescent, 28% visible
METAR KTYR 010153Z 26008KT 10SM CLR 17/02 A2987 RMK AO2 SLP113 T01670022

Get Your Daily Forecast Email!

Thanks for signing up!

Be on the lookout for a verification email in your inbox.

You'll start receiving severe weather alerts in your inbox..

×

10-Day Weather Forecast

Almanac

Astronomy

Apr. 30, 2017 Rise Set
Actual Time
Civil Twilight
Nautical Twilight
Astronomical Twilight
Moon
Length of Visible Light
Length of Day
Tomorrow will be .
, % of the Moon is Illuminated

Today's Extremes

State Highs State Lows

Community

WunderPhotos

WunderBlog® & News

Nearby

Air Quality

  Air Quality AQ Index Pollutant
Not available.

Snow Depth

Station Depth Elevation

Earthquake Activity

City Distance Mag. Time & Date
Minimum magnitude displayed is 2.5.

Coastal Water Temperatures

Place Temperature

Stations

Nearby Weather Stations

Station Location Temp. Windchill Dew Point Humidity Wind Precip. Elev Updated Type
                   

Watches & Warnings

Flood Warning
Issued: 8:21 AM CDT Apr. 30, 2017 – National Weather Service

The Flood Warning continues for
the Sabine River near Mineola.
* From late tonight until further notice... or until the warning is
cancelled.
* At 7:15 am Sunday the stage was 6.4 feet.
* Minor flooding is forecast.
* Flood stage is 14.0 feet.
* Forecast... rise above flood stage by after midnight tomorrow and
continue to rise to near 17.5 feet by early Tuesday morning.
* Impact... at 18.0 feet... expect severe flooding with some barns
facing flooding. Preparations should be completed for moderate
flooding.


Lat... Lon 3278 9574 3263 9535 3257 9535 3259 9550 3273 9574


25